Impacts METAR Board
IDs:

KSTL - St Louis/Lambert Int, MO, US

Updated at: 1200 UTC 09 Jul 2020
Potential Impact None Slight Moderate High
Time 09/00Z 09/01Z 09/02Z 09/03Z 09/04Z 09/05Z 09/06Z 09/07Z 09/08Z 09/09Z 09/10Z 09/11Z 09/12Z
Temp88 87 84 84 83 83 80 80 80 78 76 77 80
Dewpt69 71 70 72 71 70 71 71 72 72 71 71 72
Altim29.88 29.89 29.88 29.90 29.89 29.89 29.88 29.87 29.87 29.88 29.89 29.90 29.92
VIS10 10 10 10 10 10 10 10 10 10 10 9 10
CIG-- -- -- -- -- -- -- -- -- -- -- -- --
CoverFEWSCTFEWCLRCLRCLRCLRCLRCLRCLRCLRFEWFEW
FltCatVFRVFRVFRVFRVFRVFRVFRVFRVFRVFRVFRVFRVFR
WX--------------------------
WDir160200100110150170110210070120230210
WSpd7 5 6 9 5 6 8 4 0 4 6 3 3
WGst-- -- -- -- -- -- -- -- -- -- -- -- --
Raw hourly METARs
KSTL 082351Z 16007KT 10SM FEW050 FEW120 FEW250 31/21 A2988 RMK AO2 SLP103 CB DSNT N AND DSNT E MOV E T03110206 10344 20294 56008 $
KSTL 090051Z 20005KT 10SM FEW050 SCT150 SCT250 31/22 A2989 RMK AO2 SLP105 CB DSNT N AND DSNT E MOV E T03060217 $
KSTL 090151Z 10006KT 10SM FEW150 FEW250 29/21 A2988 RMK AO2 SLP104 T02890211 $
KSTL 090251Z 11009KT 10SM CLR 29/22 A2990 RMK AO2 SLP109 T02890222 53007 $
KSTL 090351Z 15005KT 10SM CLR 28/22 A2989 RMK AO2 SLP108 T02830217 $
KSTL 090451Z 17006KT 10SM CLR 28/21 A2989 RMK AO2 SLP104 T02830211 $
KSTL 090551Z 11008KT 10SM CLR 27/22 A2988 RMK AO2 SLP104 T02670217 10311 20267 403440244 56004 $
KSTL 090651Z 21004KT 10SM CLR 27/22 A2987 RMK AO2 SLP102 T02670217 $
KSTL 090751Z 00000KT 10SM CLR 27/22 A2987 RMK AO2 SLP099 T02670222 $
KSTL 090851Z 07004KT 10SM CLR 26/22 A2988 RMK AO2 SLP104 T02560222 55003 $
KSTL 090951Z 12006KT 10SM CLR 24/22 A2989 RMK AO2 SLP107 T02440217 $
KSTL 091051Z 23003KT 9SM FEW150 25/22 A2990 RMK AO2 SLP112 T02500217 $
KSTL 091151Z 21003KT 10SM FEW200 FEW250 27/22 A2992 RMK AO2 SLP118 T02670222 10267 20244 53015



Page loaded:  12:19 UTC  |   05:19 AM Pacific  |   06:19 AM Mountain  |   07:19 AM Central  |   08:19 AM Eastern

 

ADVISORIES

FORECASTS

FORECASTS

OBSERVATIONS

USER TOOLS

ABOUT US